Time;durP1;ratioP1;P1;durP2;ratioP2;P2;SDS_P1;SDS_P2;PMS_P1;PMS_P2;Temp;Humidity;BMP_temperature;BMP_pressure;BME280_temperature;BME280_humidity;BME280_pressure;Samples;Min_cycle;Max_cycle;Signal;HPM_P1;HPM_P2
2023/03/31 00:01:58;;;;;;;3.25;1.00;;;;;;;12.46;43.99;100150.69;5029532;28;20049;-84
2023/03/31 00:04:30;;;;;;;2.92;0.90;;;;;;;12.45;43.99;100142.66;5028612;28;20045;-84
2023/03/31 00:06:59;;;;;;;3.50;1.20;;;;;;;12.46;44.03;100136.13;5028717;28;20128;-83
2023/03/31 00:09:32;;;;;;;2.92;0.90;;;;;;;12.46;44.33;100136.13;5030051;28;20037;-84
2023/03/31 00:12:02;;;;;;;2.13;0.80;;;;;;;12.45;44.39;100128.94;5028966;28;20546;-83
2023/03/31 00:14:31;;;;;;;3.42;1.20;;;;;;;12.44;43.90;100136.31;5023187;28;20091;-83
2023/03/31 00:17:04;;;;;;;2.63;1.02;;;;;;;12.47;44.55;100132.34;5028943;28;20068;-83
2023/03/31 00:19:33;;;;;;;2.25;0.98;;;;;;;12.43;44.14;100128.22;5026499;28;20050;-83
2023/03/31 00:22:05;;;;;;;2.72;1.17;;;;;;;12.43;43.97;100118.13;5029815;28;20500;-82
2023/03/31 00:24:37;;;;;;;3.08;1.10;;;;;;;12.45;43.89;100121.56;5030621;28;21624;-83
2023/03/31 00:27:05;;;;;;;3.85;0.88;;;;;;;12.45;43.86;100126.19;5029738;28;20124;-82
2023/03/31 00:29:34;;;;;;;2.40;1.00;;;;;;;12.44;44.16;100119.84;5028160;28;20045;-83
2023/03/31 00:32:02;;;;;;;2.90;1.00;;;;;;;12.44;44.14;100110.75;5027256;28;20037;-84
2023/03/31 00:34:31;;;;;;;1.98;0.80;;;;;;;12.43;44.42;100100.78;5026792;28;20041;-83
2023/03/31 00:37:01;;;;;;;3.25;0.88;;;;;;;12.43;44.22;100089.81;5027687;28;20067;-84
2023/03/31 00:39:32;;;;;;;2.53;0.90;;;;;;;12.43;44.30;100082.44;5026419;28;20432;-83
2023/03/31 00:42:04;;;;;;;2.88;1.05;;;;;;;12.43;44.57;100078.84;5030203;28;20122;-83
2023/03/31 00:44:33;;;;;;;2.90;1.08;;;;;;;12.42;44.67;100067.00;5029709;28;20064;-84
2023/03/31 00:47:05;;;;;;;3.25;1.08;;;;;;;12.44;44.53;100047.63;5029436;28;20046;-84
2023/03/31 00:49:39;;;;;;;2.92;0.90;;;;;;;12.41;44.37;100045.19;5030305;28;20084;-83
2023/03/31 00:52:12;;;;;;;1.98;0.70;;;;;;;12.43;44.95;100029.44;5013566;28;20080;-84
2023/03/31 00:54:44;;;;;;;2.90;1.00;;;;;;;12.41;44.91;100029.59;5026172;28;20136;-84
2023/03/31 00:57:15;;;;;;;3.83;1.02;;;;;;;12.41;45.31;100024.13;5030662;28;20068;-84
2023/03/31 00:59:47;;;;;;;2.85;1.00;;;;;;;12.41;45.02;100021.38;5030284;28;20052;-83
2023/03/31 01:02:19;;;;;;;2.63;1.10;;;;;;;12.40;45.43;100016.91;5028628;28;20489;-83
2023/03/31 01:04:53;;;;;;;4.13;0.80;;;;;;;12.40;45.19;100005.06;5043329;28;20110;-84
2023/03/31 01:07:26;;;;;;;4.47;0.95;;;;;;;12.40;45.26;100007.81;5011411;28;20076;-84
2023/03/31 01:09:58;;;;;;;;;;;;;;;12.13;45.95;100010.81;5021422;28;20088;-84
2023/03/31 01:12:30;;;;;;;3.10;1.10;;;;;;;12.33;45.47;100004.00;5006751;28;19945;-84
2023/03/31 01:15:00;;;;;;;2.08;0.80;;;;;;;12.36;45.40;99996.31;5012138;28;20041;-83
2023/03/31 01:17:28;;;;;;;2.53;1.02;;;;;;;12.36;45.55;100000.94;5005055;28;20097;-84
2023/03/31 01:20:12;;;;;;;4.57;0.93;;;;;;;12.37;46.20;99989.81;5006485;28;20581;-84
2023/03/31 01:23:06;;;;;;;3.63;1.10;;;;;;;12.35;46.66;99982.75;5009508;28;20048;-84
2023/03/31 01:26:19;;;;;;;2.05;0.98;;;;;;;12.33;46.50;99977.44;5010224;28;20627;-83
2023/03/31 01:28:54;;;;;;;2.55;0.80;;;;;;;12.31;46.16;99979.47;5002117;28;20058;-84
2023/03/31 01:31:39;;;;;;;2.20;0.82;;;;;;;12.32;46.52;99978.47;5021941;28;20100;-83
2023/03/31 01:34:44;;;;;;;1.52;0.80;;;;;;;12.31;46.74;99967.66;5009770;28;20038;-83
2023/03/31 01:38:02;;;;;;;3.55;1.00;;;;;;;12.29;46.47;99961.50;4981770;28;20068;-84
2023/03/31 01:40:53;;;;;;;2.22;0.88;;;;;;;12.29;46.47;99953.25;5009168;28;20053;-84
2023/03/31 01:43:25;;;;;;;4.38;0.98;;;;;;;12.28;46.03;99949.66;5026503;28;20457;-84
2023/03/31 01:46:00;;;;;;;2.88;1.30;;;;;;;12.31;46.21;99953.94;5027854;28;20083;-84
2023/03/31 01:48:41;;;;;;;2.88;0.98;;;;;;;12.30;46.43;99954.94;5026885;28;20523;-83
2023/03/31 01:51:15;;;;;;;2.85;0.82;;;;;;;12.29;46.83;99954.13;5037302;28;20053;-84
2023/03/31 01:53:49;;;;;;;2.65;0.90;;;;;;;12.28;46.44;99946.91;5011577;28;20128;-83
2023/03/31 01:56:23;;;;;;;3.28;0.90;;;;;;;12.30;46.94;99949.47;5018561;28;20060;-83
2023/03/31 01:58:56;;;;;;;3.25;1.10;;;;;;;12.30;46.48;99938.50;5009605;28;20046;-83
2023/03/31 02:01:29;;;;;;;3.25;1.10;;;;;;;12.28;46.36;99929.59;5007699;28;20084;-84
2023/03/31 02:04:05;;;;;;;3.08;0.90;;;;;;;12.29;46.51;99931.31;5010176;28;20504;-83
2023/03/31 02:06:38;;;;;;;2.92;1.00;;;;;;;12.28;46.26;99922.22;5022021;28;20132;-83
2023/03/31 02:09:09;;;;;;;;;;;;;;;12.01;47.28;99925.22;5031099;28;20064;-82
2023/03/31 02:11:43;;;;;;;2.45;0.70;;;;;;;12.24;46.66;99915.34;5029066;28;19921;-83
2023/03/31 02:14:17;;;;;;;3.58;0.95;;;;;;;12.24;46.48;99904.38;5032233;28;20042;-83
2023/03/31 02:16:49;;;;;;;2.53;1.15;;;;;;;12.25;46.17;99905.22;5023929;28;20053;-83
2023/03/31 02:19:22;;;;;;;4.88;1.30;;;;;;;12.23;46.34;99902.66;5030158;28;20091;-83
2023/03/31 02:21:51;;;;;;;3.55;1.10;;;;;;;12.22;46.32;99898.19;5022661;28;20042;-84
2023/03/31 02:24:23;;;;;;;3.67;1.30;;;;;;;12.22;46.19;99881.72;5012149;28;20046;-83
2023/03/31 02:26:59;;;;;;;4.32;1.10;;;;;;;12.21;46.90;99873.69;5025267;28;20045;-83
2023/03/31 02:29:28;;;;;;;3.88;1.00;;;;;;;12.20;46.81;99858.25;5029414;28;20038;-83
2023/03/31 02:32:04;;;;;;;3.55;1.00;;;;;;;12.21;47.09;99852.59;5029263;28;20128;-83
2023/03/31 02:34:32;;;;;;;4.00;1.20;;;;;;;12.18;47.30;99833.72;5028108;28;20045;-83
2023/03/31 02:37:00;;;;;;;3.33;1.20;;;;;;;12.19;46.90;99834.59;5015254;28;20061;-83
2023/03/31 02:39:32;;;;;;;5.25;1.40;;;;;;;12.19;47.27;99824.47;5025807;28;20042;-83
2023/03/31 02:42:06;;;;;;;3.17;1.00;;;;;;;12.16;46.89;99815.72;5007775;28;20038;-83
2023/03/31 02:44:34;;;;;;;4.50;1.23;;;;;;;12.15;46.93;99817.59;5011107;28;20049;-83
2023/03/31 02:47:04;;;;;;;3.72;1.13;;;;;;;12.16;47.32;99805.59;5025782;28;20568;-86
2023/03/31 02:49:34;;;;;;;2.75;1.17;;;;;;;12.13;47.38;99798.56;5029387;28;20497;-83
2023/03/31 02:52:19;;;;;;;3.92;1.40;;;;;;;12.16;48.04;99785.53;5024486;28;20454;-83
2023/03/31 02:55:15;;;;;;;3.75;1.10;;;;;;;12.13;48.48;99783.16;5025437;28;20056;-83
2023/03/31 02:58:13;;;;;;;4.10;1.05;;;;;;;12.11;48.31;99777.84;5031381;28;20061;-83
2023/03/31 03:00:54;;;;;;;4.20;1.35;;;;;;;12.10;47.89;99765.16;5025567;28;20045;-84
2023/03/31 03:03:36;;;;;;;3.60;1.15;;;;;;;12.09;48.45;99745.09;5024871;28;20578;-85
2023/03/31 03:06:12;;;;;;;3.42;1.25;;;;;;;12.08;47.56;99742.53;5022864;28;20475;-83
2023/03/31 03:09:11;;;;;;;3.05;1.50;;;;;;;12.07;47.73;99713.38;5009624;28;20976;-82
2023/03/31 03:11:51;;;;;;;4.05;1.15;;;;;;;12.06;48.42;99715.25;5022746;28;20055;-83
2023/03/31 03:14:31;;;;;;;2.92;1.55;;;;;;;12.05;47.99;99719.03;5028950;28;20042;-82
2023/03/31 03:17:04;;;;;;;4.10;1.27;;;;;;;12.03;47.78;99726.59;5027252;28;20045;-84
2023/03/31 03:19:33;;;;;;;3.50;1.42;;;;;;;12.01;47.48;99716.81;5030819;28;20081;-83
2023/03/31 03:22:01;;;;;;;3.33;1.23;;;;;;;12.00;47.58;99701.38;5043694;28;20056;-83
2023/03/31 03:24:33;;;;;;;4.75;1.20;;;;;;;12.00;47.86;99696.75;5027963;28;20631;-83
2023/03/31 03:27:01;;;;;;;3.72;1.20;;;;;;;11.98;47.94;99689.72;5026852;28;20046;-83
2023/03/31 03:29:30;;;;;;;4.53;1.40;;;;;;;12.00;47.88;99695.91;5032504;28;20044;-82
2023/03/31 03:31:58;;;;;;;3.83;1.10;;;;;;;11.98;48.02;99689.72;5030284;28;20046;-83
2023/03/31 03:34:27;;;;;;;4.57;1.45;;;;;;;11.97;48.01;99693.50;5032285;28;20068;-83
2023/03/31 03:36:59;;;;;;;4.05;1.20;;;;;;;11.98;47.82;99679.63;5032173;28;20077;-83
2023/03/31 03:39:39;;;;;;;4.72;1.17;;;;;;;11.95;47.67;99681.88;5028163;28;20051;-83
2023/03/31 03:42:07;;;;;;;4.72;1.30;;;;;;;11.94;47.97;99667.28;5031724;28;20073;-83
2023/03/31 03:44:37;;;;;;;4.85;1.40;;;;;;;11.95;47.64;99671.75;5032062;28;20052;-83
2023/03/31 03:47:06;;;;;;;2.60;1.35;;;;;;;11.93;47.88;99671.06;5032200;28;20049;-83
2023/03/31 03:49:34;;;;;;;4.85;1.20;;;;;;;11.91;48.10;99675.00;5034572;28;20120;-83
2023/03/31 03:52:02;;;;;;;3.22;1.30;;;;;;;11.91;47.86;99658.53;5035501;28;20065;-83
2023/03/31 03:54:30;;;;;;;5.45;1.70;;;;;;;11.90;47.95;99626.66;5034012;28;21316;-83
2023/03/31 03:56:58;;;;;;;4.85;1.27;;;;;;;11.90;47.77;99632.16;5026263;28;20042;-83
2023/03/31 03:59:26;;;;;;;5.38;1.48;;;;;;;11.89;47.85;99624.94;5033336;28;20046;-83
2023/03/31 04:01:56;;;;;;;5.13;1.40;;;;;;;11.89;48.11;99623.06;5032943;28;20065;-83
2023/03/31 04:04:24;;;;;;;5.00;1.45;;;;;;;11.87;47.89;99622.41;5015200;28;20124;-83
2023/03/31 04:06:52;;;;;;;4.85;1.63;;;;;;;11.85;48.28;99618.97;5022322;28;20049;-84
2023/03/31 04:09:20;;;;;;;2.95;1.50;;;;;;;11.84;48.43;99609.03;5031030;28;20041;-83
2023/03/31 04:11:49;;;;;;;6.75;2.10;;;;;;;11.83;48.50;99607.31;5027030;28;20048;-83
2023/03/31 04:14:17;;;;;;;4.78;1.50;;;;;;;11.83;48.12;99610.06;5031024;28;20045;-83
2023/03/31 04:16:46;;;;;;;4.97;1.33;;;;;;;11.83;48.14;99611.94;5032984;28;20081;-83
2023/03/31 04:19:16;;;;;;;4.28;1.88;;;;;;;11.84;48.32;99608.19;5050503;28;20049;-83
2023/03/31 04:21:45;;;;;;;4.18;1.33;;;;;;;11.81;48.31;99597.53;5049583;28;20052;-83
2023/03/31 04:24:14;;;;;;;3.47;1.50;;;;;;;11.80;48.60;99585.72;5038401;28;20053;-82
2023/03/31 04:26:42;;;;;;;4.47;1.40;;;;;;;11.79;48.56;99585.94;5032508;28;20119;-83
2023/03/31 04:29:12;;;;;;;3.25;1.20;;;;;;;11.79;48.06;99580.44;5034036;28;20128;-83
2023/03/31 04:31:41;;;;;;;4.63;1.30;;;;;;;11.79;48.14;99572.22;5036456;28;20038;-83
2023/03/31 04:34:12;;;;;;;4.88;1.52;;;;;;;11.78;48.42;99565.03;5033768;28;20473;-83
2023/03/31 04:36:45;;;;;;;4.78;1.10;;;;;;;11.78;48.24;99554.91;5051467;22;20120;-78
2023/03/31 04:39:14;;;;;;;4.32;1.50;;;;;;;11.76;48.01;99542.41;5035118;28;20034;-80
2023/03/31 04:41:42;;;;;;;3.47;1.48;;;;;;;11.74;48.25;99531.59;5015094;28;20074;-80
2023/03/31 04:44:10;;;;;;;2.45;1.10;;;;;;;11.72;48.22;99522.69;5016670;28;20083;-80
2023/03/31 04:46:38;;;;;;;3.25;1.30;;;;;;;11.71;48.49;99502.69;5016360;28;20049;-79
2023/03/31 04:49:06;;;;;;;3.03;1.20;;;;;;;11.71;48.26;99496.34;5016315;28;20049;-80
2023/03/31 04:51:34;;;;;;;3.75;1.20;;;;;;;11.71;48.52;99496.34;5032642;28;20062;-80
2023/03/31 04:54:03;;;;;;;3.58;1.15;;;;;;;11.72;48.64;99489.81;5034471;28;20033;-80
2023/03/31 04:56:31;;;;;;;2.97;1.20;;;;;;;11.68;47.94;99489.31;5013805;28;20120;-80
2023/03/31 04:58:59;;;;;;;2.53;1.10;;;;;;;11.68;48.47;99488.47;5015389;28;20056;-80
2023/03/31 05:01:27;;;;;;;2.72;1.20;;;;;;;11.67;48.15;99473.91;5028224;28;20559;-80
2023/03/31 05:03:55;;;;;;;3.75;1.02;;;;;;;11.67;48.13;99459.34;5016017;28;20053;-80
2023/03/31 05:06:23;;;;;;;3.13;1.10;;;;;;;11.65;48.53;99466.88;5029098;28;20045;-80
2023/03/31 05:08:51;;;;;;;5.53;1.30;;;;;;;11.66;48.09;99458.47;5014302;28;20152;-81
2023/03/31 05:11:20;;;;;;;4.22;1.38;;;;;;;11.66;48.20;99455.75;5042661;28;20056;-81
2023/03/31 05:13:48;;;;;;;4.50;1.48;;;;;;;11.63;48.09;99445.16;5021012;28;20045;-81
2023/03/31 05:16:16;;;;;;;3.50;1.20;;;;;;;11.64;47.83;99443.25;5019938;28;20054;-80
2023/03/31 05:18:45;;;;;;;3.65;1.20;;;;;;;11.61;47.66;99429.91;5029352;28;20080;-80
2023/03/31 05:21:14;;;;;;;3.40;1.30;;;;;;;11.62;47.61;99426.16;5046311;28;20049;-80
2023/03/31 05:23:42;;;;;;;2.28;1.23;;;;;;;11.61;47.78;99416.22;5036074;28;20110;-81
2023/03/31 05:26:11;;;;;;;2.83;1.20;;;;;;;11.60;47.92;99420.81;5045919;28;20053;-80
2023/03/31 05:28:40;;;;;;;2.85;1.30;;;;;;;11.60;48.18;99411.72;5024415;28;20049;-81
2023/03/31 05:31:11;;;;;;;4.22;1.20;;;;;;;11.58;47.94;99406.41;5023122;28;20068;-79
2023/03/31 05:33:40;;;;;;;2.58;1.00;;;;;;;11.57;47.60;99399.22;5026169;28;20067;-79
2023/03/31 05:36:10;;;;;;;3.03;1.10;;;;;;;11.56;47.89;99397.50;5021455;28;20045;-80
2023/03/31 05:38:38;;;;;;;3.45;1.25;;;;;;;11.53;48.33;99389.66;5040040;28;20037;-80
2023/03/31 05:41:08;;;;;;;3.85;1.27;;;;;;;11.52;48.01;99398.03;5029595;28;20050;-80
2023/03/31 05:43:36;;;;;;;5.00;1.60;;;;;;;11.51;47.80;99390.84;5025588;28;20052;-81
2023/03/31 05:46:06;;;;;;;3.95;1.50;;;;;;;11.51;48.05;99388.97;5018909;28;20038;-80
2023/03/31 05:48:36;;;;;;;2.60;1.33;;;;;;;11.47;48.14;99382.13;5021121;28;20145;-80
2023/03/31 05:51:04;;;;;;;3.63;1.65;;;;;;;11.49;48.23;99381.94;5019541;28;20045;-80
2023/03/31 05:53:32;;;;;;;3.72;1.58;;;;;;;11.48;48.11;99381.09;5021165;28;20079;-81
2023/03/31 05:56:03;;;;;;;4.40;1.30;;;;;;;11.50;48.56;99378.19;5021748;28;20440;-80
2023/03/31 05:58:34;;;;;;;4.05;1.65;;;;;;;11.49;48.47;99379.22;5045770;28;20052;-80
2023/03/31 06:01:06;;;;;;;4.30;1.25;;;;;;;11.51;48.46;99371.69;5019437;28;20534;-79
2023/03/31 06:03:35;;;;;;;3.15;1.23;;;;;;;11.47;47.91;99371.16;5044951;28;20416;-80
2023/03/31 06:06:05;;;;;;;3.63;1.33;;;;;;;11.50;48.22;99368.09;5010245;28;20049;-80
2023/03/31 06:08:33;;;;;;;3.58;1.00;;;;;;;11.49;48.13;99365.50;5018705;28;20057;-80
2023/03/31 06:11:05;;;;;;;2.72;0.98;;;;;;;11.51;48.08;99360.72;5018363;28;20056;-79
2023/03/31 06:13:34;;;;;;;3.35;1.20;;;;;;;11.49;48.37;99363.63;5034616;28;20049;-80
2023/03/31 06:16:02;;;;;;;4.57;1.38;;;;;;;11.49;48.25;99362.78;5030613;28;20045;-82
2023/03/31 06:18:33;;;;;;;3.17;1.10;;;;;;;11.51;48.52;99366.19;5047146;28;20124;-81
2023/03/31 06:21:02;;;;;;;2.22;1.10;;;;;;;11.47;48.38;99343.75;5038022;28;20099;-80
2023/03/31 06:23:30;;;;;;;2.90;1.10;;;;;;;11.48;48.64;99341.88;5044326;28;20063;-80
2023/03/31 06:26:01;;;;;;;2.78;1.00;;;;;;;11.48;48.77;99337.25;5044750;28;20424;-80
2023/03/31 06:28:30;;;;;;;3.08;1.27;;;;;;;11.44;48.63;99333.19;5027601;28;20546;-80
2023/03/31 06:31:02;;;;;;;4.15;1.13;;;;;;;11.47;48.92;99338.28;5027513;28;20428;-81
2023/03/31 06:33:33;;;;;;;1.95;1.13;;;;;;;11.42;48.84;99340.72;5025139;28;20048;-80
2023/03/31 06:36:04;;;;;;;3.35;1.00;;;;;;;11.41;48.26;99330.78;5022613;28;20116;-80
2023/03/31 06:38:32;;;;;;;2.42;1.05;;;;;;;11.42;48.39;99331.66;5041898;28;20106;-79
2023/03/31 06:41:01;;;;;;;2.53;0.98;;;;;;;11.42;48.89;99331.66;5048516;28;20063;-80
2023/03/31 06:43:29;;;;;;;3.00;0.90;;;;;;;11.40;48.82;99337.28;5018100;28;20447;-80
2023/03/31 06:45:57;;;;;;;1.83;0.90;;;;;;;11.39;48.49;99332.84;5037320;28;20426;-80
2023/03/31 06:48:26;;;;;;;2.70;1.00;;;;;;;11.39;48.80;99323.78;5034113;28;20116;-79
2023/03/31 06:50:59;;;;;;;4.63;1.10;;;;;;;11.37;49.02;99332.19;5017658;28;20045;-79
2023/03/31 06:53:27;;;;;;;2.70;1.02;;;;;;;11.34;48.47;99327.91;5017972;28;20044;-79
2023/03/31 06:55:55;;;;;;;2.40;0.90;;;;;;;11.33;48.37;99319.84;5034146;28;20117;-80
2023/03/31 06:58:23;;;;;;;2.53;1.27;;;;;;;11.33;48.83;99323.44;5019330;28;20137;-80
2023/03/31 07:00:51;;;;;;;2.67;0.88;;;;;;;11.32;48.50;99323.63;5010298;28;20045;-79
2023/03/31 07:03:21;;;;;;;2.38;0.80;;;;;;;11.30;48.87;99317.50;5012741;28;20042;-81
2023/03/31 07:05:50;;;;;;;1.55;0.70;;;;;;;11.30;48.89;99312.88;5013359;28;20037;-81
2023/03/31 07:08:20;;;;;;;3.22;1.00;;;;;;;11.31;48.65;99317.28;5028735;28;20041;-80
2023/03/31 07:10:49;;;;;;;1.00;0.60;;;;;;;11.29;48.64;99311.16;5017743;28;20049;-80
2023/03/31 07:13:18;;;;;;;2.03;0.90;;;;;;;11.28;48.88;99308.59;5035985;28;20689;-81
2023/03/31 07:15:48;;;;;;;1.45;0.80;;;;;;;11.29;48.92;99316.63;5014524;28;20158;-82
2023/03/31 07:18:17;;;;;;;1.95;1.05;;;;;;;11.27;49.12;99301.41;5030392;28;20117;-79
2023/03/31 07:20:49;;;;;;;3.03;0.75;;;;;;;11.27;48.77;99307.72;5031784;28;20129;-80
2023/03/31 07:23:19;;;;;;;2.00;0.70;;;;;;;11.24;48.39;99305.34;5033509;28;20068;-82
2023/03/31 07:25:47;;;;;;;1.27;0.73;;;;;;;11.26;48.39;99300.53;5034269;28;20049;-79
2023/03/31 07:28:16;;;;;;;1.40;0.63;;;;;;;11.25;48.89;99300.72;5018233;28;20140;-81
2023/03/31 07:30:44;;;;;;;1.50;0.80;;;;;;;11.25;48.87;99301.56;5015647;28;20053;-80
2023/03/31 07:33:12;;;;;;;1.50;0.68;;;;;;;11.25;48.58;99296.09;5014228;28;20152;-82
2023/03/31 07:35:41;;;;;;;1.30;0.55;;;;;;;11.27;48.79;99299.53;5011834;28;20115;-81
2023/03/31 07:38:09;;;;;;;1.98;0.80;;;;;;;11.26;48.51;99295.06;5031115;28;20045;-82
2023/03/31 07:40:40;;;;;;;2.17;0.65;;;;;;;11.29;49.04;99288.41;5030624;28;20055;-82
2023/03/31 07:43:08;;;;;;;1.52;0.57;;;;;;;11.27;48.61;99291.31;5030980;28;20053;-81
2023/03/31 07:45:36;;;;;;;1.13;0.55;;;;;;;11.28;48.67;99283.94;5029023;28;20053;-82
2023/03/31 07:48:04;;;;;;;1.27;0.60;;;;;;;11.31;48.70;99283.56;5022928;28;20045;-80
2023/03/31 07:50:38;;;;;;;1.08;0.50;;;;;;;11.33;48.95;99281.50;5024357;28;20057;-81
2023/03/31 07:53:13;;;;;;;1.98;0.77;;;;;;;11.32;48.81;99280.66;5023687;28;20045;-77
2023/03/31 07:55:43;;;;;;;1.52;0.50;;;;;;;11.38;48.83;99281.84;5015092;28;20096;-81
2023/03/31 07:58:11;;;;;;;1.45;0.60;;;;;;;11.41;48.95;99269.66;5038468;28;20041;-80
2023/03/31 08:00:39;;;;;;;2.55;0.77;;;;;;;11.46;49.20;99276.34;5033369;28;20056;-78
2023/03/31 08:03:07;;;;;;;2.05;0.60;;;;;;;11.49;48.74;99277.84;5015736;28;20056;-78
2023/03/31 08:05:35;;;;;;;0.73;0.57;;;;;;;11.54;48.48;99276.28;5018152;28;21228;-80
2023/03/31 08:08:04;;;;;;;1.27;0.50;;;;;;;11.59;48.45;99273.88;5013132;28;20042;-80
2023/03/31 08:10:32;;;;;;;1.45;0.60;;;;;;;11.62;48.70;99270.81;5028676;28;20057;-80
2023/03/31 08:13:01;;;;;;;1.45;0.68;;;;;;;11.66;48.24;99260.31;5014849;28;20060;-80
2023/03/31 08:15:29;;;;;;;1.10;0.68;;;;;;;11.68;48.51;99269.22;5013192;28;20054;-81
2023/03/31 08:17:57;;;;;;;1.88;0.70;;;;;;;11.71;48.42;99268.88;5014884;28;20050;-80
2023/03/31 08:20:25;;;;;;;1.98;0.60;;;;;;;11.73;48.21;99264.03;5013110;28;20059;-81
2023/03/31 08:22:53;;;;;;;1.35;0.60;;;;;;;11.74;48.31;99266.59;5020257;28;20037;-82
2023/03/31 08:25:22;;;;;;;1.27;0.50;;;;;;;11.77;48.25;99276.38;5031386;28;20524;-81
2023/03/31 08:27:50;;;;;;;2.50;0.55;;;;;;;11.78;48.53;99275.34;5012254;28;20072;-81
2023/03/31 08:30:20;;;;;;;1.92;0.70;;;;;;;11.80;48.44;99270.50;5024659;28;20126;-82
2023/03/31 08:32:48;;;;;;;1.88;0.60;;;;;;;11.80;48.44;99250.50;5014466;28;20045;-82
2023/03/31 08:35:16;;;;;;;1.88;0.80;;;;;;;11.80;48.11;99254.06;5027352;28;20097;-80
2023/03/31 08:37:44;;;;;;;0.90;0.55;;;;;;;11.79;48.39;99260.59;5013951;28;20046;-81
2023/03/31 08:40:16;;;;;;;1.85;0.93;;;;;;;11.81;48.94;99264.00;5030607;28;20057;-84
2023/03/31 08:42:47;;;;;;;1.75;0.82;;;;;;;11.79;48.54;99259.75;5011269;28;20059;-82
2023/03/31 08:45:21;;;;;;;1.63;0.60;;;;;;;11.81;48.96;99255.78;5016104;28;20089;-80
2023/03/31 08:47:53;;;;;;;3.05;0.80;;;;;;;11.81;49.31;99250.28;5039806;28;20677;-81
2023/03/31 08:50:24;;;;;;;2.23;0.80;;;;;;;11.80;49.02;99247.75;5041879;28;20072;-81
2023/03/31 08:53:06;;;;;;;3.83;1.10;;;;;;;11.83;49.53;99240.00;5027157;28;20314;-82
2023/03/31 08:55:43;;;;;;;3.92;1.15;;;;;;;11.84;49.37;99240.84;5030414;28;20057;-78
2023/03/31 08:58:23;;;;;;;2.92;1.15;;;;;;;11.85;49.35;99240.69;5016617;28;20053;-79
2023/03/31 09:01:00;;;;;;;2.75;1.13;;;;;;;11.87;49.51;99235.88;5032216;28;20133;-80
2023/03/31 09:03:34;;;;;;;4.93;1.30;;;;;;;11.89;49.22;99231.03;5039102;28;20038;-78
2023/03/31 09:06:06;;;;;;;3.75;1.77;;;;;;;11.91;49.40;99223.50;5021807;28;20101;-79
2023/03/31 09:08:37;;;;;;;3.72;1.10;;;;;;;11.93;49.21;99220.56;5020902;28;20121;-80
2023/03/31 09:11:21;;;;;;;5.07;1.35;;;;;;;11.99;49.20;99228.91;5017794;28;20079;-80
2023/03/31 09:14:01;;;;;;;3.45;1.20;;;;;;;12.03;49.50;99243.97;5015188;28;20114;-79
2023/03/31 09:16:35;;;;;;;5.70;1.95;;;;;;;12.08;48.89;99227.81;5014650;28;20060;-80
2023/03/31 09:19:08;;;;;;;5.60;2.10;;;;;;;12.10;49.14;99230.38;5015168;28;20049;-79
2023/03/31 09:21:40;;;;;;;;;;;;;;;11.88;49.73;99225.75;5030434;28;20049;-78
2023/03/31 09:24:15;;;;;;;3.95;1.30;;;;;;;12.15;48.53;99218.84;5015231;28;19952;-80
2023/03/31 09:26:46;;;;;;;4.93;1.48;;;;;;;12.19;48.84;99212.81;5030100;28;20548;-79
2023/03/31 09:29:19;;;;;;;6.45;1.45;;;;;;;12.24;48.21;99213.09;5031614;28;20411;-80
2023/03/31 09:31:48;;;;;;;2.40;1.10;;;;;;;12.25;48.36;99209.34;5018426;28;20479;-79
2023/03/31 09:34:23;;;;;;;4.70;1.45;;;;;;;12.29;47.87;99204.34;5016088;28;20041;-78
2023/03/31 09:36:51;;;;;;;5.30;1.30;;;;;;;12.30;47.99;99206.88;5017855;28;20049;-78
2023/03/31 09:39:19;;;;;;;5.05;1.58;;;;;;;12.33;47.95;99194.69;5031111;28;20067;-80
2023/03/31 09:41:50;;;;;;;4.50;1.40;;;;;;;12.35;47.61;99189.88;5011232;28;20057;-79
2023/03/31 09:44:26;;;;;;;4.68;1.52;;;;;;;12.38;47.30;99197.72;5033044;28;20049;-81
2023/03/31 09:46:56;;;;;;;5.15;1.40;;;;;;;12.41;47.69;99175.41;5011805;28;20053;-79
2023/03/31 09:49:28;;;;;;;5.35;1.60;;;;;;;12.44;47.81;99175.91;5027485;28;20048;-81
2023/03/31 09:52:04;;;;;;;5.47;1.45;;;;;;;12.47;47.57;99167.28;5033877;28;20057;-78
2023/03/31 09:54:40;;;;;;;4.60;1.27;;;;;;;12.50;47.26;99168.78;5038675;28;20076;-78
2023/03/31 09:57:16;;;;;;;4.30;1.30;;;;;;;12.56;47.32;99181.75;5017590;28;20058;-80
2023/03/31 09:59:45;;;;;;;4.50;1.83;;;;;;;12.57;47.65;99197.19;5016394;28;20045;-79
2023/03/31 10:02:34;;;;;;;3.65;1.42;;;;;;;12.61;47.00;99189.44;5016840;28;20049;-80
2023/03/31 10:05:04;;;;;;;3.17;0.98;;;;;;;12.60;47.03;99180.34;5014961;28;20084;-79
2023/03/31 10:07:33;;;;;;;4.22;1.30;;;;;;;12.61;46.80;99175.72;5012745;28;20053;-79
2023/03/31 10:10:02;;;;;;;5.05;1.13;;;;;;;12.59;46.64;99170.41;5028391;28;20046;-80
2023/03/31 10:12:31;;;;;;;5.70;1.50;;;;;;;12.58;47.01;99176.09;5031357;28;20790;-79
2023/03/31 10:15:16;;;;;;;5.45;1.40;;;;;;;12.57;46.88;99177.97;5029022;28;20115;-80
2023/03/31 10:17:50;;;;;;;3.10;1.15;;;;;;;12.55;47.29;99168.22;5011872;28;20140;-81
2023/03/31 10:20:33;;;;;;;4.50;1.40;;;;;;;12.54;47.59;99170.13;5023887;28;20037;-80
2023/03/31 10:23:06;;;;;;;3.13;1.10;;;;;;;12.53;47.56;99165.69;5010334;28;20072;-79
2023/03/31 10:25:34;;;;;;;4.93;1.23;;;;;;;12.49;47.69;99150.63;5018117;28;20063;-81
2023/03/31 10:28:03;;;;;;;4.28;1.35;;;;;;;12.50;47.38;99158.66;5031315;28;20065;-79
2023/03/31 10:30:38;;;;;;;5.68;2.20;;;;;;;12.54;47.78;99148.19;5006279;28;20140;-81
2023/03/31 10:33:14;;;;;;;4.53;1.35;;;;;;;12.56;47.77;99140.59;5031492;28;20496;-81
2023/03/31 10:35:55;;;;;;;4.85;1.45;;;;;;;12.59;48.13;99136.63;5010024;28;20053;-80
2023/03/31 10:38:27;;;;;;;4.93;1.40;;;;;;;12.61;48.38;99132.66;5030837;28;20427;-80
2023/03/31 10:40:57;;;;;;;4.32;1.55;;;;;;;12.66;48.06;99124.72;5030589;28;20121;-81
2023/03/31 10:43:28;;;;;;;4.03;1.60;;;;;;;12.71;47.99;99115.91;5014088;28;20117;-80
2023/03/31 10:45:58;;;;;;;5.18;1.73;;;;;;;12.76;48.00;99118.97;5016419;28;20050;-80
2023/03/31 10:48:30;;;;;;;5.75;1.65;;;;;;;12.81;47.69;99128.31;5014448;28;20465;-80
2023/03/31 10:51:00;;;;;;;4.57;1.33;;;;;;;12.86;47.41;99114.03;5015231;28;20449;-80
2023/03/31 10:53:28;;;;;;;6.20;1.83;;;;;;;12.91;47.58;99138.16;5036562;28;20718;-80
2023/03/31 10:56:08;;;;;;;5.47;1.33;;;;;;;12.98;46.94;99161.91;5033424;28;20061;-80
2023/03/31 10:58:50;;;;;;;3.55;1.33;;;;;;;12.97;46.29;99179.41;5015347;28;20172;-80
2023/03/31 11:01:44;;;;;;;3.25;0.90;;;;;;;12.95;46.36;99176.03;5028030;28;20064;-80
2023/03/31 11:04:49;;;;;;;2.38;0.80;;;;;;;12.88;46.28;99173.19;5017061;28;20145;-81
2023/03/31 11:07:35;;;;;;;1.38;0.63;;;;;;;12.86;46.37;99174.44;5025761;28;20058;-81
2023/03/31 11:10:21;;;;;;;2.55;0.95;;;;;;;12.80;46.07;99181.50;5017316;28;20148;-80
2023/03/31 11:12:57;;;;;;;2.55;0.82;;;;;;;12.74;45.74;99175.94;5017100;28;20076;-81
2023/03/31 11:15:34;;;;;;;3.72;0.70;;;;;;;12.69;46.00;99175.66;5033091;28;20042;-80
2023/03/31 11:18:29;;;;;;;2.08;0.60;;;;;;;12.61;45.71;99171.09;5019419;28;20059;-79
2023/03/31 11:21:08;;;;;;;3.05;1.08;;;;;;;12.57;46.01;99168.88;5020953;28;20569;-80
2023/03/31 11:23:42;;;;;;;2.00;0.68;;;;;;;12.54;45.97;99172.88;5013803;28;20084;-80
2023/03/31 11:26:13;;;;;;;3.38;0.85;;;;;;;12.49;46.15;99165.19;5016167;28;20058;-80
2023/03/31 11:29:03;;;;;;;3.17;0.90;;;;;;;12.46;46.44;99161.97;5016448;28;20136;-80
2023/03/31 11:31:43;;;;;;;2.83;0.90;;;;;;;12.43;46.83;99149.50;5014560;28;20053;-78
2023/03/31 11:34:41;;;;;;;2.72;0.80;;;;;;;12.39;46.32;99145.41;5033213;28;20073;-81
2023/03/31 11:37:23;;;;;;;3.30;0.85;;;;;;;12.40;46.98;99141.63;5030662;28;20440;-80
2023/03/31 11:40:00;;;;;;;2.03;0.70;;;;;;;12.38;46.86;99131.88;5014788;28;20050;-79
2023/03/31 11:42:36;;;;;;;2.63;0.80;;;;;;;12.41;46.69;99132.38;5028007;28;20655;-80
2023/03/31 11:45:15;;;;;;;1.60;0.70;;;;;;;12.42;46.87;99135.97;5014028;28;20060;-78
2023/03/31 11:47:47;;;;;;;2.50;1.00;;;;;;;12.41;47.15;99135.09;5015964;28;20038;-80
2023/03/31 11:50:19;;;;;;;3.35;0.88;;;;;;;12.43;46.93;99130.28;5019752;28;20045;-80
2023/03/31 11:52:56;;;;;;;3.80;1.10;;;;;;;12.45;47.02;99138.34;5034021;28;20065;-80
2023/03/31 11:55:28;;;;;;;2.92;0.90;;;;;;;12.46;46.84;99123.56;5033324;28;20343;-80
2023/03/31 11:58:03;;;;;;;3.10;0.90;;;;;;;12.48;46.69;99133.31;5022091;28;20053;-80
2023/03/31 12:00:36;;;;;;;4.90;1.20;;;;;;;12.49;46.62;99117.69;5010392;28;20070;-80